sensor_id;sensor_type;location;lat;lon;timestamp;pressure;altitude;pressure_sealevel;temperature;humidity
47913;BME280;33676;51.006;17.180;2023-08-31T00:02:13;99399.20;;;15.37;100.00
47913;BME280;33676;51.006;17.180;2023-08-31T00:04:40;99400.52;;;15.33;100.00
47913;BME280;33676;51.006;17.180;2023-08-31T00:07:07;99395.83;;;15.30;100.00
47913;BME280;33676;51.006;17.180;2023-08-31T00:09:34;99393.40;;;15.26;100.00
47913;BME280;33676;51.006;17.180;2023-08-31T00:12:02;99393.11;;;15.23;100.00
47913;BME280;33676;51.006;17.180;2023-08-31T00:14:30;99395.55;;;15.22;100.00
47913;BME280;33676;51.006;17.180;2023-08-31T00:16:57;99394.02;;;15.20;100.00
47913;BME280;33676;51.006;17.180;2023-08-31T00:19:24;99395.86;;;15.19;100.00
47913;BME280;33676;51.006;17.180;2023-08-31T00:21:51;99397.65;;;15.18;100.00
47913;BME280;33676;51.006;17.180;2023-08-31T00:24:18;99398.98;;;15.17;100.00
47913;BME280;33676;51.006;17.180;2023-08-31T00:26:48;99396.80;;;15.16;100.00
47913;BME280;33676;51.006;17.180;2023-08-31T00:29:18;99395.65;;;15.15;100.00
47913;BME280;33676;51.006;17.180;2023-08-31T00:31:45;99391.82;;;15.15;100.00
47913;BME280;33676;51.006;17.180;2023-08-31T00:34:15;99389.91;;;15.15;100.00
47913;BME280;33676;51.006;17.180;2023-08-31T00:36:44;99391.39;;;15.14;100.00
47913;BME280;33676;51.006;17.180;2023-08-31T00:39:11;99389.42;;;15.12;100.00
47913;BME280;33676;51.006;17.180;2023-08-31T00:41:38;99385.61;;;15.12;100.00
47913;BME280;33676;51.006;17.180;2023-08-31T00:44:12;99380.95;;;15.11;100.00
47913;BME280;33676;51.006;17.180;2023-08-31T00:46:40;99376.71;;;15.10;100.00
47913;BME280;33676;51.006;17.180;2023-08-31T00:49:07;99379.27;;;15.07;100.00
47913;BME280;33676;51.006;17.180;2023-08-31T00:51:35;99378.80;;;15.05;100.00
47913;BME280;33676;51.006;17.180;2023-08-31T00:54:04;99378.91;;;15.05;100.00
47913;BME280;33676;51.006;17.180;2023-08-31T00:56:32;99382.65;;;15.03;100.00
47913;BME280;33676;51.006;17.180;2023-08-31T00:59:00;99380.34;;;15.01;100.00
47913;BME280;33676;51.006;17.180;2023-08-31T01:01:43;99378.39;;;15.00;100.00
47913;BME280;33676;51.006;17.180;2023-08-31T01:04:26;99377.08;;;14.97;100.00
47913;BME280;33676;51.006;17.180;2023-08-31T01:07:19;99374.91;;;14.95;100.00
47913;BME280;33676;51.006;17.180;2023-08-31T01:10:02;99372.68;;;14.91;100.00
47913;BME280;33676;51.006;17.180;2023-08-31T01:15:35;99371.83;;;14.84;100.00
47913;BME280;33676;51.006;17.180;2023-08-31T01:18:03;99377.52;;;14.82;100.00
47913;BME280;33676;51.006;17.180;2023-08-31T01:20:44;99386.65;;;14.79;100.00
47913;BME280;33676;51.006;17.180;2023-08-31T01:23:17;99391.55;;;14.76;100.00
47913;BME280;33676;51.006;17.180;2023-08-31T01:25:47;99395.77;;;14.73;100.00
47913;BME280;33676;51.006;17.180;2023-08-31T01:28:15;99395.44;;;14.70;100.00
47913;BME280;33676;51.006;17.180;2023-08-31T01:30:42;99391.16;;;14.65;100.00
47913;BME280;33676;51.006;17.180;2023-08-31T01:33:09;99395.81;;;14.62;100.00
47913;BME280;33676;51.006;17.180;2023-08-31T01:35:43;99390.96;;;14.57;100.00
47913;BME280;33676;51.006;17.180;2023-08-31T01:38:15;99392.98;;;14.53;100.00
47913;BME280;33676;51.006;17.180;2023-08-31T01:41:01;99391.20;;;14.49;100.00
47913;BME280;33676;51.006;17.180;2023-08-31T01:43:34;99389.05;;;14.44;100.00
47913;BME280;33676;51.006;17.180;2023-08-31T01:46:02;99392.80;;;14.40;100.00
47913;BME280;33676;51.006;17.180;2023-08-31T01:48:30;99390.05;;;14.37;100.00
47913;BME280;33676;51.006;17.180;2023-08-31T01:50:57;99389.06;;;14.33;100.00
47913;BME280;33676;51.006;17.180;2023-08-31T01:53:28;99384.98;;;14.30;100.00
47913;BME280;33676;51.006;17.180;2023-08-31T01:55:55;99383.19;;;14.27;100.00
47913;BME280;33676;51.006;17.180;2023-08-31T01:58:22;99386.91;;;14.23;100.00
47913;BME280;33676;51.006;17.180;2023-08-31T02:00:49;99388.86;;;14.20;100.00
47913;BME280;33676;51.006;17.180;2023-08-31T02:03:16;99396.20;;;14.15;100.00
47913;BME280;33676;51.006;17.180;2023-08-31T02:05:44;99398.14;;;14.12;100.00
47913;BME280;33676;51.006;17.180;2023-08-31T02:08:11;99395.27;;;14.08;100.00
47913;BME280;33676;51.006;17.180;2023-08-31T02:10:38;99398.91;;;14.05;100.00
47913;BME280;33676;51.006;17.180;2023-08-31T02:13:05;99397.52;;;14.02;100.00
47913;BME280;33676;51.006;17.180;2023-08-31T02:15:32;99399.90;;;13.99;100.00
47913;BME280;33676;51.006;17.180;2023-08-31T02:17:59;99396.80;;;13.97;100.00
47913;BME280;33676;51.006;17.180;2023-08-31T02:20:27;99394.84;;;13.96;100.00
47913;BME280;33676;51.006;17.180;2023-08-31T02:22:54;99399.48;;;13.93;100.00
47913;BME280;33676;51.006;17.180;2023-08-31T02:25:22;99399.36;;;13.91;100.00
47913;BME280;33676;51.006;17.180;2023-08-31T02:27:49;99401.52;;;13.90;100.00
47913;BME280;33676;51.006;17.180;2023-08-31T02:30:16;99405.54;;;13.89;100.00
47913;BME280;33676;51.006;17.180;2023-08-31T02:32:43;99404.75;;;13.88;100.00
47913;BME280;33676;51.006;17.180;2023-08-31T02:35:10;99411.60;;;13.88;100.00
47913;BME280;33676;51.006;17.180;2023-08-31T02:37:39;99413.86;;;13.87;100.00
47913;BME280;33676;51.006;17.180;2023-08-31T02:40:10;99410.02;;;13.85;100.00
47913;BME280;33676;51.006;17.180;2023-08-31T02:42:37;99404.92;;;13.83;100.00
47913;BME280;33676;51.006;17.180;2023-08-31T02:45:05;99404.60;;;13.81;100.00
47913;BME280;33676;51.006;17.180;2023-08-31T02:47:32;99399.33;;;13.80;100.00
47913;BME280;33676;51.006;17.180;2023-08-31T02:49:59;99396.16;;;13.78;100.00
47913;BME280;33676;51.006;17.180;2023-08-31T02:52:26;99396.22;;;13.77;100.00
47913;BME280;33676;51.006;17.180;2023-08-31T02:54:53;99400.05;;;13.76;100.00
47913;BME280;33676;51.006;17.180;2023-08-31T02:57:20;99400.76;;;13.74;100.00
47913;BME280;33676;51.006;17.180;2023-08-31T02:59:51;99401.91;;;13.73;100.00
47913;BME280;33676;51.006;17.180;2023-08-31T03:02:19;99401.91;;;13.72;100.00
47913;BME280;33676;51.006;17.180;2023-08-31T03:04:46;99398.02;;;13.70;100.00
47913;BME280;33676;51.006;17.180;2023-08-31T03:07:13;99399.89;;;13.70;100.00
47913;BME280;33676;51.006;17.180;2023-08-31T03:09:42;99399.02;;;13.68;100.00
47913;BME280;33676;51.006;17.180;2023-08-31T03:12:09;99398.30;;;13.66;100.00
47913;BME280;33676;51.006;17.180;2023-08-31T03:14:36;99397.64;;;13.64;100.00
47913;BME280;33676;51.006;17.180;2023-08-31T03:17:03;99392.45;;;13.62;100.00
47913;BME280;33676;51.006;17.180;2023-08-31T03:19:30;99390.21;;;13.59;100.00
47913;BME280;33676;51.006;17.180;2023-08-31T03:25:28;99392.95;;;13.55;100.00
47913;BME280;33676;51.006;17.180;2023-08-31T03:27:56;99394.66;;;13.54;100.00
47913;BME280;33676;51.006;17.180;2023-08-31T03:30:23;99401.38;;;13.53;100.00
47913;BME280;33676;51.006;17.180;2023-08-31T03:32:50;99407.05;;;13.53;100.00
47913;BME280;33676;51.006;17.180;2023-08-31T03:35:17;99403.61;;;13.52;100.00
47913;BME280;33676;51.006;17.180;2023-08-31T03:37:47;99398.59;;;13.52;100.00
47913;BME280;33676;51.006;17.180;2023-08-31T03:40:14;99400.24;;;13.51;100.00
47913;BME280;33676;51.006;17.180;2023-08-31T03:42:41;99398.96;;;13.50;100.00
47913;BME280;33676;51.006;17.180;2023-08-31T03:45:09;99402.75;;;13.49;100.00
47913;BME280;33676;51.006;17.180;2023-08-31T03:47:36;99403.34;;;13.48;100.00
47913;BME280;33676;51.006;17.180;2023-08-31T03:50:04;99402.35;;;13.48;100.00
47913;BME280;33676;51.006;17.180;2023-08-31T03:52:32;99406.36;;;13.46;100.00
47913;BME280;33676;51.006;17.180;2023-08-31T03:54:59;99406.52;;;13.45;100.00
47913;BME280;33676;51.006;17.180;2023-08-31T03:57:26;99403.81;;;13.44;100.00
47913;BME280;33676;51.006;17.180;2023-08-31T03:59:53;99406.41;;;13.43;100.00
47913;BME280;33676;51.006;17.180;2023-08-31T04:02:20;99402.92;;;13.42;100.00
47913;BME280;33676;51.006;17.180;2023-08-31T04:04:47;99403.02;;;13.42;100.00
47913;BME280;33676;51.006;17.180;2023-08-31T04:07:14;99404.35;;;13.39;100.00
47913;BME280;33676;51.006;17.180;2023-08-31T04:09:41;99405.30;;;13.38;100.00
47913;BME280;33676;51.006;17.180;2023-08-31T04:12:08;99405.66;;;13.38;100.00
47913;BME280;33676;51.006;17.180;2023-08-31T04:14:35;99407.38;;;13.37;100.00
47913;BME280;33676;51.006;17.180;2023-08-31T04:17:02;99405.55;;;13.36;100.00
47913;BME280;33676;51.006;17.180;2023-08-31T04:19:32;99405.15;;;13.34;100.00
47913;BME280;33676;51.006;17.180;2023-08-31T04:21:59;99401.98;;;13.33;100.00
47913;BME280;33676;51.006;17.180;2023-08-31T04:24:26;99403.66;;;13.32;100.00
47913;BME280;33676;51.006;17.180;2023-08-31T04:26:53;99401.63;;;13.31;100.00
47913;BME280;33676;51.006;17.180;2023-08-31T04:29:22;99402.20;;;13.31;100.00
47913;BME280;33676;51.006;17.180;2023-08-31T04:31:50;99407.27;;;13.31;100.00
47913;BME280;33676;51.006;17.180;2023-08-31T04:34:17;99405.73;;;13.32;100.00
47913;BME280;33676;51.006;17.180;2023-08-31T04:36:45;99411.14;;;13.34;100.00
47913;BME280;33676;51.006;17.180;2023-08-31T04:39:12;99411.45;;;13.37;100.00
47913;BME280;33676;51.006;17.180;2023-08-31T04:41:39;99410.02;;;13.38;100.00
47913;BME280;33676;51.006;17.180;2023-08-31T04:44:06;99407.98;;;13.41;100.00
47913;BME280;33676;51.006;17.180;2023-08-31T04:46:34;99408.16;;;13.43;100.00
47913;BME280;33676;51.006;17.180;2023-08-31T04:49:01;99407.50;;;13.45;100.00
47913;BME280;33676;51.006;17.180;2023-08-31T04:51:34;99409.43;;;13.49;100.00
47913;BME280;33676;51.006;17.180;2023-08-31T04:54:02;99408.83;;;13.53;100.00
47913;BME280;33676;51.006;17.180;2023-08-31T04:56:31;99405.69;;;13.58;100.00
47913;BME280;33676;51.006;17.180;2023-08-31T04:59:00;99407.47;;;13.63;100.00
47913;BME280;33676;51.006;17.180;2023-08-31T05:01:28;99406.47;;;13.67;100.00
47913;BME280;33676;51.006;17.180;2023-08-31T05:03:55;99411.36;;;13.72;100.00
47913;BME280;33676;51.006;17.180;2023-08-31T05:06:22;99416.98;;;13.79;100.00
47913;BME280;33676;51.006;17.180;2023-08-31T05:08:49;99422.98;;;13.85;100.00
47913;BME280;33676;51.006;17.180;2023-08-31T05:11:16;99423.89;;;13.92;100.00
47913;BME280;33676;51.006;17.180;2023-08-31T05:13:43;99423.65;;;13.99;100.00
47913;BME280;33676;51.006;17.180;2023-08-31T05:16:11;99422.20;;;14.06;100.00
47913;BME280;33676;51.006;17.180;2023-08-31T05:18:39;99426.78;;;14.14;100.00
47913;BME280;33676;51.006;17.180;2023-08-31T05:21:07;99426.27;;;14.22;100.00
47913;BME280;33676;51.006;17.180;2023-08-31T05:23:34;99422.13;;;14.30;100.00
47913;BME280;33676;51.006;17.180;2023-08-31T05:26:02;99424.04;;;14.38;100.00
47913;BME280;33676;51.006;17.180;2023-08-31T05:28:29;99430.11;;;14.47;100.00
47913;BME280;33676;51.006;17.180;2023-08-31T05:30:57;99434.77;;;14.56;100.00
47913;BME280;33676;51.006;17.180;2023-08-31T05:33:25;99435.95;;;14.66;100.00
47913;BME280;33676;51.006;17.180;2023-08-31T05:35:56;99438.85;;;14.77;100.00
47913;BME280;33676;51.006;17.180;2023-08-31T05:38:23;99438.73;;;14.85;100.00
47913;BME280;33676;51.006;17.180;2023-08-31T05:40:50;99441.39;;;14.95;100.00
47913;BME280;33676;51.006;17.180;2023-08-31T05:43:17;99446.77;;;15.04;100.00
47913;BME280;33676;51.006;17.180;2023-08-31T05:45:44;99451.20;;;15.11;100.00
47913;BME280;33676;51.006;17.180;2023-08-31T05:48:11;99453.83;;;15.19;100.00
47913;BME280;33676;51.006;17.180;2023-08-31T05:50:38;99461.84;;;15.27;100.00
47913;BME280;33676;51.006;17.180;2023-08-31T05:53:06;99470.73;;;15.32;100.00
47913;BME280;33676;51.006;17.180;2023-08-31T05:55:34;99477.20;;;15.37;100.00
47913;BME280;33676;51.006;17.180;2023-08-31T05:58:01;99484.95;;;15.42;100.00
47913;BME280;33676;51.006;17.180;2023-08-31T06:00:30;99483.74;;;15.45;100.00
47913;BME280;33676;51.006;17.180;2023-08-31T06:02:57;99488.54;;;15.48;100.00
47913;BME280;33676;51.006;17.180;2023-08-31T06:05:24;99489.76;;;15.49;100.00
47913;BME280;33676;51.006;17.180;2023-08-31T06:07:51;99488.31;;;15.51;100.00
47913;BME280;33676;51.006;17.180;2023-08-31T06:10:19;99492.11;;;15.52;100.00
47913;BME280;33676;51.006;17.180;2023-08-31T06:12:46;99494.69;;;15.52;100.00
47913;BME280;33676;51.006;17.180;2023-08-31T06:15:13;99493.47;;;15.54;100.00
47913;BME280;33676;51.006;17.180;2023-08-31T06:17:42;99494.33;;;15.56;100.00
47913;BME280;33676;51.006;17.180;2023-08-31T06:20:10;99494.55;;;15.57;100.00
47913;BME280;33676;51.006;17.180;2023-08-31T06:22:38;99497.78;;;15.58;100.00
47913;BME280;33676;51.006;17.180;2023-08-31T06:25:05;99496.86;;;15.60;100.00
47913;BME280;33676;51.006;17.180;2023-08-31T06:27:32;99493.73;;;15.63;100.00
47913;BME280;33676;51.006;17.180;2023-08-31T06:29:59;99496.44;;;15.67;100.00
47913;BME280;33676;51.006;17.180;2023-08-31T06:32:26;99496.54;;;15.74;100.00
47913;BME280;33676;51.006;17.180;2023-08-31T06:34:54;99499.88;;;15.82;100.00
47913;BME280;33676;51.006;17.180;2023-08-31T06:37:21;99495.25;;;15.90;100.00
47913;BME280;33676;51.006;17.180;2023-08-31T06:39:48;99497.69;;;16.00;100.00
47913;BME280;33676;51.006;17.180;2023-08-31T06:42:15;99501.95;;;16.10;100.00
47913;BME280;33676;51.006;17.180;2023-08-31T06:44:42;99500.81;;;16.20;100.00
47913;BME280;33676;51.006;17.180;2023-08-31T06:47:10;99504.93;;;16.30;100.00
47913;BME280;33676;51.006;17.180;2023-08-31T06:49:37;99505.11;;;16.39;100.00
47913;BME280;33676;51.006;17.180;2023-08-31T06:52:04;99508.09;;;16.49;100.00
47913;BME280;33676;51.006;17.180;2023-08-31T06:54:49;99508.36;;;16.59;100.00
47913;BME280;33676;51.006;17.180;2023-08-31T06:57:16;99513.73;;;16.69;100.00
47913;BME280;33676;51.006;17.180;2023-08-31T06:59:43;99517.28;;;16.78;100.00
47913;BME280;33676;51.006;17.180;2023-08-31T07:02:11;99521.36;;;16.87;100.00
47913;BME280;33676;51.006;17.180;2023-08-31T07:04:38;99519.71;;;16.96;100.00
47913;BME280;33676;51.006;17.180;2023-08-31T07:07:06;99518.02;;;17.06;100.00
47913;BME280;33676;51.006;17.180;2023-08-31T07:09:35;99516.05;;;17.15;100.00
47913;BME280;33676;51.006;17.180;2023-08-31T07:12:03;99517.12;;;17.24;100.00
47913;BME280;33676;51.006;17.180;2023-08-31T07:14:30;99522.16;;;17.34;100.00
47913;BME280;33676;51.006;17.180;2023-08-31T07:16:57;99525.03;;;17.45;100.00
47913;BME280;33676;51.006;17.180;2023-08-31T07:19:24;99524.34;;;17.54;100.00
47913;BME280;33676;51.006;17.180;2023-08-31T07:21:51;99527.17;;;17.63;100.00
47913;BME280;33676;51.006;17.180;2023-08-31T07:24:18;99528.35;;;17.72;100.00
47913;BME280;33676;51.006;17.180;2023-08-31T07:26:45;99532.81;;;17.82;100.00
47913;BME280;33676;51.006;17.180;2023-08-31T07:29:12;99533.72;;;17.92;100.00
47913;BME280;33676;51.006;17.180;2023-08-31T07:31:40;99538.29;;;18.04;100.00
47913;BME280;33676;51.006;17.180;2023-08-31T07:34:08;99545.31;;;18.14;100.00
47913;BME280;33676;51.006;17.180;2023-08-31T07:36:37;99544.77;;;18.26;100.00
47913;BME280;33676;51.006;17.180;2023-08-31T07:39:07;99544.80;;;18.39;100.00
47913;BME280;33676;51.006;17.180;2023-08-31T07:41:39;99546.23;;;18.52;100.00
47913;BME280;33676;51.006;17.180;2023-08-31T07:44:08;99552.09;;;18.65;100.00
47913;BME280;33676;51.006;17.180;2023-08-31T07:46:35;99557.04;;;18.76;100.00
47913;BME280;33676;51.006;17.180;2023-08-31T07:49:07;99556.30;;;18.85;100.00
47913;BME280;33676;51.006;17.180;2023-08-31T07:51:34;99560.89;;;18.95;100.00
47913;BME280;33676;51.006;17.180;2023-08-31T07:54:01;99562.47;;;19.05;100.00
47913;BME280;33676;51.006;17.180;2023-08-31T07:56:31;99566.95;;;19.19;100.00
47913;BME280;33676;51.006;17.180;2023-08-31T07:58:58;99564.52;;;19.35;100.00
47913;BME280;33676;51.006;17.180;2023-08-31T08:01:25;99565.08;;;19.52;100.00
47913;BME280;33676;51.006;17.180;2023-08-31T08:03:52;99567.90;;;19.67;100.00
47913;BME280;33676;51.006;17.180;2023-08-31T08:06:19;99567.17;;;19.79;100.00
47913;BME280;33676;51.006;17.180;2023-08-31T08:08:46;99573.03;;;19.89;100.00
47913;BME280;33676;51.006;17.180;2023-08-31T08:11:14;99575.08;;;19.97;100.00
47913;BME280;33676;51.006;17.180;2023-08-31T08:13:41;99573.73;;;20.03;100.00
47913;BME280;33676;51.006;17.180;2023-08-31T08:16:08;99572.98;;;20.13;100.00
47913;BME280;33676;51.006;17.180;2023-08-31T08:18:36;99579.96;;;20.26;100.00
47913;BME280;33676;51.006;17.180;2023-08-31T08:21:03;99577.05;;;20.37;100.00
47913;BME280;33676;51.006;17.180;2023-08-31T08:23:30;99579.91;;;20.52;100.00
47913;BME280;33676;51.006;17.180;2023-08-31T08:25:57;99587.01;;;20.68;100.00
47913;BME280;33676;51.006;17.180;2023-08-31T08:28:27;99589.86;;;20.76;100.00
47913;BME280;33676;51.006;17.180;2023-08-31T08:30:55;99591.36;;;20.82;100.00
47913;BME280;33676;51.006;17.180;2023-08-31T08:33:22;99593.13;;;20.85;100.00
47913;BME280;33676;51.006;17.180;2023-08-31T08:35:49;99594.77;;;20.86;100.00
47913;BME280;33676;51.006;17.180;2023-08-31T08:38:16;99600.13;;;20.86;100.00
47913;BME280;33676;51.006;17.180;2023-08-31T08:40:44;99605.53;;;20.81;100.00
47913;BME280;33676;51.006;17.180;2023-08-31T08:43:11;99608.34;;;20.78;100.00
47913;BME280;33676;51.006;17.180;2023-08-31T08:45:39;99607.42;;;20.70;100.00
47913;BME280;33676;51.006;17.180;2023-08-31T08:48:09;99614.67;;;20.59;100.00
47913;BME280;33676;51.006;17.180;2023-08-31T08:50:37;99612.77;;;20.48;100.00
47913;BME280;33676;51.006;17.180;2023-08-31T08:53:05;99616.63;;;20.37;100.00
47913;BME280;33676;51.006;17.180;2023-08-31T08:55:33;99625.92;;;20.25;100.00
47913;BME280;33676;51.006;17.180;2023-08-31T08:58:00;99620.82;;;20.12;100.00
47913;BME280;33676;51.006;17.180;2023-08-31T09:00:27;99619.64;;;19.99;100.00
47913;BME280;33676;51.006;17.180;2023-08-31T09:03:02;99617.94;;;19.87;100.00
47913;BME280;33676;51.006;17.180;2023-08-31T09:05:33;99616.96;;;19.74;100.00
47913;BME280;33676;51.006;17.180;2023-08-31T09:08:15;99631.70;;;19.63;100.00
47913;BME280;33676;51.006;17.180;2023-08-31T09:10:57;99632.79;;;19.56;100.00
47913;BME280;33676;51.006;17.180;2023-08-31T09:13:29;99634.88;;;19.56;100.00
47913;BME280;33676;51.006;17.180;2023-08-31T09:15:56;99629.63;;;19.65;100.00
47913;BME280;33676;51.006;17.180;2023-08-31T09:20:53;99631.66;;;19.90;100.00
47913;BME280;33676;51.006;17.180;2023-08-31T09:23:25;99635.11;;;19.93;100.00
47913;BME280;33676;51.006;17.180;2023-08-31T09:25:55;99644.61;;;19.87;100.00
47913;BME280;33676;51.006;17.180;2023-08-31T09:28:26;99656.61;;;19.68;100.00
47913;BME280;33676;51.006;17.180;2023-08-31T09:31:08;99665.91;;;19.43;99.65
47913;BME280;33676;51.006;17.180;2023-08-31T09:33:36;99674.34;;;19.13;98.51
47913;BME280;33676;51.006;17.180;2023-08-31T09:36:06;99680.58;;;18.88;98.29
47913;BME280;33676;51.006;17.180;2023-08-31T09:38:45;99682.90;;;18.66;98.09
47913;BME280;33676;51.006;17.180;2023-08-31T09:41:13;99691.00;;;18.41;98.11
47913;BME280;33676;51.006;17.180;2023-08-31T09:43:42;99696.64;;;18.21;97.96
47913;BME280;33676;51.006;17.180;2023-08-31T09:46:10;99701.48;;;18.00;98.08
47913;BME280;33676;51.006;17.180;2023-08-31T09:48:41;99705.80;;;17.80;97.76
47913;BME280;33676;51.006;17.180;2023-08-31T09:51:14;99711.59;;;17.62;98.01
47913;BME280;33676;51.006;17.180;2023-08-31T09:53:48;99722.09;;;17.46;97.71
47913;BME280;33676;51.006;17.180;2023-08-31T09:56:20;99719.35;;;17.29;97.62
47913;BME280;33676;51.006;17.180;2023-08-31T09:58:48;99729.41;;;17.12;97.47
47913;BME280;33676;51.006;17.180;2023-08-31T10:01:18;99737.63;;;16.94;97.80
47913;BME280;33676;51.006;17.180;2023-08-31T10:03:53;99741.38;;;16.75;98.22
47913;BME280;33676;51.006;17.180;2023-08-31T10:06:21;99741.66;;;16.60;98.40
47913;BME280;33676;51.006;17.180;2023-08-31T10:08:49;99739.61;;;16.50;98.69
47913;BME280;33676;51.006;17.180;2023-08-31T10:11:16;99740.63;;;16.42;98.79
47913;BME280;33676;51.006;17.180;2023-08-31T10:13:46;99746.33;;;16.39;99.23
47913;BME280;33676;51.006;17.180;2023-08-31T10:16:21;99761.25;;;16.36;99.41
47913;BME280;33676;51.006;17.180;2023-08-31T10:18:48;99763.11;;;16.34;99.43
47913;BME280;33676;51.006;17.180;2023-08-31T10:21:19;99766.81;;;16.32;99.38
47913;BME280;33676;51.006;17.180;2023-08-31T10:23:48;99770.39;;;16.29;99.28
47913;BME280;33676;51.006;17.180;2023-08-31T10:26:27;99769.60;;;16.24;99.22
47913;BME280;33676;51.006;17.180;2023-08-31T10:28:56;99771.63;;;16.20;99.29
47913;BME280;33676;51.006;17.180;2023-08-31T10:31:31;99771.73;;;16.19;99.64
47913;BME280;33676;51.006;17.180;2023-08-31T10:34:02;99772.02;;;16.22;99.92
47913;BME280;33676;51.006;17.180;2023-08-31T10:39:00;99770.20;;;16.29;100.00
47913;BME280;33676;51.006;17.180;2023-08-31T10:41:35;99768.60;;;16.30;100.00
47913;BME280;33676;51.006;17.180;2023-08-31T10:44:34;99769.15;;;16.36;100.00
47913;BME280;33676;51.006;17.180;2023-08-31T10:47:03;99768.80;;;16.46;100.00
47913;BME280;33676;51.006;17.180;2023-08-31T10:49:31;99768.77;;;16.56;100.00
47913;BME280;33676;51.006;17.180;2023-08-31T10:52:18;99764.59;;;16.73;100.00
47913;BME280;33676;51.006;17.180;2023-08-31T10:55:05;99754.04;;;17.02;100.00
47913;BME280;33676;51.006;17.180;2023-08-31T10:57:35;99750.05;;;17.34;100.00
47913;BME280;33676;51.006;17.180;2023-08-31T11:00:03;99752.44;;;17.64;100.00
47913;BME280;33676;51.006;17.180;2023-08-31T11:05:17;99756.00;;;18.19;100.00
47913;BME280;33676;51.006;17.180;2023-08-31T11:07:47;99758.02;;;18.36;100.00
47913;BME280;33676;51.006;17.180;2023-08-31T11:10:20;99756.65;;;18.61;100.00
47913;BME280;33676;51.006;17.180;2023-08-31T11:12:53;99753.38;;;19.05;100.00
47913;BME280;33676;51.006;17.180;2023-08-31T11:15:24;99752.61;;;19.52;100.00
47913;BME280;33676;51.006;17.180;2023-08-31T11:17:55;99750.16;;;19.94;99.72
47913;BME280;33676;51.006;17.180;2023-08-31T11:20:24;99752.27;;;20.34;99.27
47913;BME280;33676;51.006;17.180;2023-08-31T11:22:54;99747.17;;;20.67;99.02
47913;BME280;33676;51.006;17.180;2023-08-31T11:25:22;99740.85;;;20.97;98.25
47913;BME280;33676;51.006;17.180;2023-08-31T11:27:54;99739.27;;;21.40;98.38
47913;BME280;33676;51.006;17.180;2023-08-31T11:30:22;99740.29;;;21.84;98.17
47913;BME280;33676;51.006;17.180;2023-08-31T11:32:51;99736.30;;;22.15;97.00
47913;BME280;33676;51.006;17.180;2023-08-31T11:35:20;99737.58;;;22.38;96.21
47913;BME280;33676;51.006;17.180;2023-08-31T11:37:56;99736.22;;;22.66;95.35
47913;BME280;33676;51.006;17.180;2023-08-31T11:40:26;99743.14;;;22.87;93.50
47913;BME280;33676;51.006;17.180;2023-08-31T11:42:54;99739.70;;;22.91;92.74
47913;BME280;33676;51.006;17.180;2023-08-31T11:45:23;99732.52;;;22.95;92.66
47913;BME280;33676;51.006;17.180;2023-08-31T11:47:51;99729.14;;;23.17;93.22
47913;BME280;33676;51.006;17.180;2023-08-31T11:50:19;99726.11;;;23.44;93.45
47913;BME280;33676;51.006;17.180;2023-08-31T11:52:48;99728.26;;;23.71;92.59
47913;BME280;33676;51.006;17.180;2023-08-31T11:55:16;99731.11;;;23.89;91.41
47913;BME280;33676;51.006;17.180;2023-08-31T11:57:52;99726.44;;;24.08;91.59
47913;BME280;33676;51.006;17.180;2023-08-31T12:00:22;99733.58;;;24.38;92.21
47913;BME280;33676;51.006;17.180;2023-08-31T12:03:00;99729.54;;;24.74;92.54
47913;BME280;33676;51.006;17.180;2023-08-31T12:05:28;99732.46;;;25.01;91.22
47913;BME280;33676;51.006;17.180;2023-08-31T12:07:56;99732.92;;;25.20;89.83
47913;BME280;33676;51.006;17.180;2023-08-31T12:10:25;99732.83;;;25.43;89.58
47913;BME280;33676;51.006;17.180;2023-08-31T12:12:52;99737.10;;;25.63;88.27
47913;BME280;33676;51.006;17.180;2023-08-31T12:15:22;99736.70;;;25.77;87.60
47913;BME280;33676;51.006;17.180;2023-08-31T12:17:50;99738.35;;;26.01;86.90
47913;BME280;33676;51.006;17.180;2023-08-31T12:20:25;99734.02;;;26.22;86.78
47913;BME280;33676;51.006;17.180;2023-08-31T12:22:56;99729.61;;;26.26;86.07
47913;BME280;33676;51.006;17.180;2023-08-31T12:25:23;99728.77;;;25.91;84.37
47913;BME280;33676;51.006;17.180;2023-08-31T12:27:50;99725.90;;;25.43;83.12
47913;BME280;33676;51.006;17.180;2023-08-31T12:30:17;99728.92;;;24.94;82.22
47913;BME280;33676;51.006;17.180;2023-08-31T12:32:44;99730.67;;;24.44;81.79
47913;BME280;33676;51.006;17.180;2023-08-31T12:35:12;99730.84;;;23.96;81.30
47913;BME280;33676;51.006;17.180;2023-08-31T12:37:41;99735.29;;;23.48;80.91
47913;BME280;33676;51.006;17.180;2023-08-31T12:40:09;99734.48;;;23.09;81.35
47913;BME280;33676;51.006;17.180;2023-08-31T12:42:36;99738.56;;;22.79;81.67
47913;BME280;33676;51.006;17.180;2023-08-31T12:45:04;99740.30;;;22.45;81.14
47913;BME280;33676;51.006;17.180;2023-08-31T12:47:32;99728.83;;;22.13;81.37
47913;BME280;33676;51.006;17.180;2023-08-31T12:49:59;99731.33;;;21.90;81.72
47913;BME280;33676;51.006;17.180;2023-08-31T12:52:26;99739.59;;;21.68;81.80
47913;BME280;33676;51.006;17.180;2023-08-31T12:54:53;99742.64;;;21.50;81.98
47913;BME280;33676;51.006;17.180;2023-08-31T12:57:20;99745.58;;;21.42;82.50
47913;BME280;33676;51.006;17.180;2023-08-31T12:59:47;99743.31;;;21.39;82.92
47913;BME280;33676;51.006;17.180;2023-08-31T13:02:15;99744.36;;;21.45;83.49
47913;BME280;33676;51.006;17.180;2023-08-31T13:04:42;99743.45;;;21.63;83.87
47913;BME280;33676;51.006;17.180;2023-08-31T13:07:10;99743.29;;;21.97;84.43